| time (UTC) | temp C | wind direction | speed KPH | gust KPH | rain 1hr cm | rain 24hr cm | rain mn cm | humidity % | barometer mb |
| 20260507083100 | 10 | 0 | 0.0 | 0.0 | 0.00 | 0.08 | 0.00 | 81 | 1014.3 |
| 20260507081530 | 10 | 0 | 0.0 | 0.0 | 0.00 | 0.08 | 0.00 | 81 | 1014.2 |
| 20260507080938 | 10 | 0 | 0.0 | 0.0 | 0.00 | 0.10 | 0.00 | 83 | 1014.2 |
| 20260507080303 | 10 | 0 | 0.0 | 0.0 | 0.00 | 0.10 | 0.00 | 83 | 1014.1 |
| 20260507075737 | 10 | 0 | 0.0 | 0.0 | 0.00 | 0.10 | 0.00 | 83 | 1014.2 |
| 20260507073442 | 10 | 0 | 0.0 | 0.0 | 0.00 | 0.10 | 0.00 | 84 | 1014.0 |
| 20260507071255 | 9 | 0 | 0.0 | 0.0 | 0.00 | 0.10 | 0.00 | 87 | 1013.9 |
| 20260507063734 | 8 | 0 | 0.0 | 0.0 | 0.00 | 0.15 | 0.00 | 90 | 1013.8 |
| 20260507063059 | 8 | 0 | 0.0 | 0.0 | 0.00 | 0.15 | 0.00 | 93 | 1013.7 |
| 20260507061906 | 8 | 0 | 0.0 | 0.0 | 0.00 | 0.18 | 0.00 | 94 | 1013.6 |
| 20260507060421 | 8 | 0 | 0.0 | 0.0 | 0.00 | 0.18 | 0.00 | 95 | 1013.5 |
| 20260507055645 | 8 | 0 | 0.0 | 0.0 | 0.00 | 0.18 | 0.00 | 95 | 1013.5 |
| 20260507053314 | 7 | 0 | 0.0 | 0.0 | 0.00 | 0.23 | 0.00 | 97 | 1013.3 |
| 20260507051948 | 7 | 0 | 0.0 | 0.0 | 0.00 | 0.25 | 0.00 | 98 | 1013.1 |
| 20260507050133 | 7 | 0 | 0.0 | 0.0 | 0.00 | 0.28 | 0.00 | 98 | 1013.0 |
| 20260507044516 | 7 | 0 | 0.0 | 0.0 | 0.00 | 0.33 | 0.00 | 99 | 1012.8 |
| 20260507041347 | 7 | 0 | 0.0 | 0.0 | 0.00 | 0.41 | 0.00 | 98 | 1012.6 |
| 20260507040637 | 7 | 0 | 0.0 | 0.0 | 0.00 | 0.43 | 0.00 | 98 | 1012.5 |
| 20260507035049 | 7 | 0 | 0.0 | 0.0 | 0.00 | 0.43 | 0.00 | 98 | 1012.4 |
| 20260507033738 | 7 | 0 | 0.0 | 0.0 | 0.00 | 0.43 | 0.00 | 98 | 1012.4 |
| 20260507032242 | 7 | 0 | 0.0 | 0.0 | 0.00 | 0.43 | 0.00 | 97 | 1012.3 |
| 20260507030449 | 7 | 0 | 0.0 | 0.0 | 0.00 | 0.46 | 0.00 | 97 | 1012.3 |
| 20260507025924 | 7 | 0 | 0.0 | 0.0 | 0.00 | 0.48 | 0.00 | 97 | 1012.3 |
| 20260507024809 | 7 | 0 | 0.0 | 0.0 | 0.00 | 0.51 | 0.00 | 96 | 1012.2 |
| 20260507023137 | 7 | 0 | 0.0 | 0.0 | 0.00 | 0.51 | 0.00 | 95 | 1012.2 |
| 20260507022055 | 7 | 0 | 0.0 | 0.0 | 0.00 | 0.51 | 0.00 | 95 | 1012.1 |
| 20260507015406 | 7 | 0 | 0.0 | 0.0 | 0.00 | 0.51 | 0.00 | 95 | 1011.9 |
| 20260507014204 | 7 | 0 | 0.0 | 0.0 | 0.00 | 0.53 | 0.00 | 96 | 1011.8 |
| 20260507013418 | 7 | 0 | 0.0 | 0.0 | 0.00 | 0.56 | 0.00 | 96 | 1011.8 |
| 20260507012842 | 7 | 0 | 0.0 | 0.0 | 0.00 | 0.56 | 0.00 | 96 | 1011.9 |
| 20260507012316 | 7 | 0 | 0.0 | 0.0 | 0.00 | 0.56 | 0.00 | 96 | 1012.0 |
| 20260507010919 | 7 | 0 | 0.0 | 0.0 | 0.00 | 0.61 | 0.00 | 97 | 1011.8 |
| 20260507010355 | 7 | 0 | 0.0 | 0.0 | 0.00 | 0.61 | 0.00 | 97 | 1011.8 |
| 20260507004151 | 7 | 0 | 0.0 | 0.0 | 0.00 | 0.64 | 0.00 | 98 | 1011.8 |
| 20260507002729 | 7 | 0 | 0.0 | 0.0 | 0.00 | 0.69 | 0.00 | 98 | 1011.7 |
| 20260507002228 | 7 | 0 | 0.0 | 0.0 | 0.00 | 0.69 | 0.00 | 98 | 1011.7 |
| 20260506233108 | 7 | 0 | 0.0 | 0.0 | 0.00 | 0.81 | 0.00 | 98 | 1011.5 |
| 20260506231737 | 7 | 0 | 0.0 | 0.0 | 0.00 | 0.81 | 0.00 | 98 | 1011.4 |
| 20260506224721 | 6 | 0 | 0.0 | 0.0 | 0.00 | 0.89 | 0.00 | 97 | 1011.3 |
| 20260506222754 | 6 | 0 | 0.0 | 0.0 | 0.00 | 0.94 | 0.00 | 96 | 1011.2 |
| 20260506222101 | 6 | 0 | 0.0 | 0.0 | 0.00 | 0.94 | 0.00 | 96 | 1011.1 |
| 20260506221226 | 6 | 0 | 0.0 | 0.0 | 0.00 | 0.99 | 0.00 | 95 | 1011.0 |
| 20260506213433 | 6 | 0 | 0.0 | 0.0 | 0.00 | 1.04 | 0.99 | 92 | 1010.8 |
| 20260506212256 | 6 | 0 | 0.0 | 0.0 | 0.00 | 1.09 | 0.99 | 91 | 1010.6 |
| 20260506211057 | 7 | 0 | 0.0 | 0.0 | 0.00 | 1.09 | 0.99 | 91 | 1010.5 |
| 20260506210148 | 7 | 0 | 0.0 | 0.0 | 0.00 | 1.09 | 0.99 | 91 | 1010.5 |
| 20260506203756 | 7 | 0 | 0.0 | 0.0 | 0.00 | 1.12 | 0.99 | 89 | 1010.2 |
| 20260506203010 | 7 | 0 | 0.0 | 0.0 | 0.00 | 1.12 | 0.99 | 89 | 1010.2 |
| 20260506202334 | 7 | 0 | 0.0 | 0.0 | 0.00 | 1.12 | 0.99 | 88 | 1010.2 |
| 20260506192118 | 9 | 0 | 0.0 | 0.0 | 0.00 | 1.19 | 0.99 | 84 | 1009.5 |
| 20260506185834 | 10 | 0 | 0.0 | 0.0 | 0.00 | 1.22 | 0.99 | 85 | 1009.2 |
| 20260506183003 | 10 | 0 | 0.0 | 0.0 | 0.00 | 1.27 | 0.99 | 84 | 1008.9 |
| 20260506181910 | 11 | 0 | 0.0 | 0.0 | 0.00 | 1.27 | 0.99 | 83 | 1008.7 |
| 20260506180535 | 11 | 0 | 0.0 | 0.0 | 0.00 | 1.30 | 0.99 | 89 | 1008.6 |
| 20260506175257 | 11 | 0 | 0.0 | 0.0 | 0.00 | 1.30 | 0.99 | 87 | 1008.4 |
| 20260506174142 | 11 | 0 | 0.0 | 0.0 | 0.00 | 1.32 | 0.99 | 87 | 1008.2 |
| 20260506172059 | 11 | 0 | 0.0 | 0.0 | 0.00 | 1.37 | 0.99 | 86 | 1008.1 |
| 20260506170318 | 11 | 0 | 0.0 | 0.0 | 0.00 | 1.37 | 0.99 | 85 | 1008.0 |
| 20260506165203 | 11 | 0 | 0.0 | 0.0 | 0.00 | 1.37 | 0.99 | 85 | 1007.9 |
| 20260506164221 | 11 | 0 | 0.0 | 0.0 | 0.00 | 1.37 | 0.99 | 82 | 1007.9 |
| 20260506163216 | 11 | 0 | 0.0 | 0.0 | 0.00 | 1.37 | 0.99 | 82 | 1007.9 |
| 20260506161950 | 11 | 0 | 0.0 | 0.0 | 0.00 | 1.37 | 0.99 | 80 | 1007.9 |
| 20260506161424 | 11 | 0 | 0.0 | 0.0 | 0.00 | 1.37 | 0.99 | 79 | 1007.9 |
| 20260506160159 | 11 | 0 | 0.0 | 0.0 | 0.00 | 1.37 | 0.99 | 80 | 1007.9 |
| 20260506154943 | 11 | 0 | 0.0 | 0.0 | 0.00 | 1.37 | 0.99 | 80 | 1007.8 |
| 20260506154100 | 11 | 0 | 0.0 | 0.0 | 0.00 | 1.37 | 0.99 | 81 | 1007.8 |
| 20260506153500 | 11 | 0 | 0.0 | 0.0 | 0.00 | 1.37 | 0.99 | 81 | 1007.8 |
| 20260506152410 | 11 | 0 | 0.0 | 0.0 | 0.00 | 1.37 | 0.99 | 80 | 1007.7 |
| 20260506151744 | 12 | 0 | 0.0 | 0.0 | 0.00 | 1.37 | 0.99 | 81 | 1007.6 |
| 20260506145908 | 12 | 0 | 0.0 | 0.0 | 0.00 | 1.37 | 0.99 | 83 | 1007.6 |
| 20260506144642 | 11 | 0 | 0.0 | 0.0 | 0.00 | 1.37 | 0.99 | 86 | 1007.7 |
| 20260506143931 | 11 | 0 | 0.0 | 0.0 | 0.00 | 1.37 | 0.99 | 86 | 1007.6 |
| 20260506143158 | 11 | 0 | 0.0 | 0.0 | 0.00 | 1.37 | 0.99 | 87 | 1007.7 |
| 20260506142116 | 11 | 0 | 0.0 | 0.0 | 0.00 | 1.37 | 0.99 | 87 | 1007.8 |
| 20260506141110 | 11 | 0 | 0.0 | 0.0 | 0.00 | 1.37 | 0.99 | 87 | 1007.8 |
| 20260506135209 | 11 | 0 | 0.0 | 0.0 | 0.00 | 1.37 | 0.99 | 88 | 1007.9 |
| 20260506134644 | 11 | 0 | 0.0 | 0.0 | 0.00 | 1.37 | 0.99 | 88 | 1007.9 |
| 20260506131538 | 10 | 0 | 0.0 | 0.0 | 0.00 | 1.37 | 0.99 | 90 | 1007.9 |
| 20260506130903 | 10 | 0 | 0.0 | 0.0 | 0.00 | 1.37 | 0.99 | 88 | 1007.8 |
| 20260506130117 | 10 | 0 | 0.0 | 0.0 | 0.00 | 1.37 | 0.99 | 86 | 1007.7 |
| 20260506125551 | 10 | 0 | 0.0 | 0.0 | 0.00 | 1.37 | 0.99 | 86 | 1007.7 |
| 20260506122154 | 11 | 0 | 0.0 | 0.0 | 0.00 | 1.37 | 0.99 | 89 | 1007.5 |
| 20260506120558 | 10 | 0 | 0.0 | 0.0 | 0.00 | 1.37 | 0.99 | 91 | 1007.4 |
| 20260506113517 | 10 | 0 | 0.0 | 0.0 | 0.00 | 1.37 | 0.99 | 94 | 1007.4 |
| 20260506112806 | 10 | 0 | 0.0 | 0.0 | 0.03 | 1.37 | 0.99 | 94 | 1007.4 |
| 20260506110932 | 9 | 0 | 0.0 | 0.0 | 0.03 | 1.37 | 0.99 | 96 | 1007.5 |
| 20260506105411 | 9 | 0 | 0.0 | 0.0 | 0.03 | 1.37 | 0.99 | 98 | 1007.6 |
| 20260506104810 | 9 | 0 | 0.0 | 0.0 | 0.03 | 1.37 | 0.99 | 97 | 1007.6 |
| 20260506102932 | 8 | 0 | 0.0 | 0.0 | 0.05 | 1.37 | 0.99 | 98 | 1007.7 |
| 20260506102431 | 8 | 0 | 0.0 | 0.0 | 0.05 | 1.37 | 0.99 | 98 | 1007.6 |
| 20260506101907 | 8 | 0 | 0.0 | 0.0 | 0.05 | 1.37 | 0.97 | 99 | 1007.6 |
| 20260506095831 | 8 | 0 | 0.0 | 0.0 | 0.05 | 1.37 | 0.97 | 99 | 1007.4 |
| 20260506094520 | 8 | 0 | 0.0 | 0.0 | 0.05 | 1.37 | 0.97 | 99 | 1007.3 |
| 20260506093108 | 8 | 0 | 0.0 | 0.0 | 0.05 | 1.37 | 0.97 | 99 | 1007.2 |
| 20260506092507 | 8 | 0 | 0.0 | 0.0 | 0.05 | 1.37 | 0.97 | 10 | 1007.1 |
| 20260506091645 | 8 | 0 | 0.0 | 0.0 | 0.05 | 1.35 | 0.94 | 10 | 1007.0 |
| 20260506090530 | 8 | 0 | 0.0 | 0.0 | 0.05 | 1.35 | 0.94 | 10 | 1007.0 |